createdAt,value
2023-02-08T00:00:51.921Z,71.21
2023-02-08T00:03:18.502Z,71.68
2023-02-08T00:05:48.674Z,72.52
2023-02-08T00:08:15.973Z,73.22
2023-02-08T00:10:42.962Z,72.34
2023-02-08T00:13:09.984Z,72.06
2023-02-08T00:15:41.523Z,71.65
2023-02-08T00:18:08.078Z,72.47
2023-02-08T00:20:34.594Z,71.79
2023-02-08T00:23:01.075Z,71.94
2023-02-08T00:25:27.508Z,72.56
2023-02-08T00:27:53.959Z,72.94
2023-02-08T00:30:20.632Z,73.47
2023-02-08T00:32:47.332Z,73.56
2023-02-08T00:35:14.029Z,73.53
2023-02-08T00:37:41.646Z,72.58
2023-02-08T00:40:08.870Z,72.68
2023-02-08T00:42:35.383Z,72.60
2023-02-08T00:45:01.979Z,72.40
2023-02-08T00:47:28.804Z,72.23
2023-02-08T00:49:55.931Z,72.68
2023-02-08T00:52:22.781Z,72.10
2023-02-08T00:54:49.855Z,72.91
2023-02-08T00:57:19.692Z,73.12
2023-02-08T00:59:48.530Z,73.30
2023-02-08T01:02:15.768Z,73.42
2023-02-08T01:04:42.723Z,74.26
2023-02-08T01:07:09.382Z,74.95
2023-02-08T01:09:35.925Z,74.71
2023-02-08T01:12:02.789Z,74.58
2023-02-08T01:14:29.709Z,75.06
2023-02-08T01:16:56.249Z,74.34
2023-02-08T01:19:22.825Z,73.37
2023-02-08T01:21:52.125Z,73.21
2023-02-08T01:24:21.909Z,74.23
2023-02-08T01:26:52.932Z,73.60
2023-02-08T01:29:22.450Z,73.43
2023-02-08T01:31:51.866Z,73.96
2023-02-08T01:34:21.856Z,74.43
2023-02-08T01:36:51.130Z,74.36
2023-02-08T01:39:19.773Z,74.25
2023-02-08T01:41:46.765Z,74.79
2023-02-08T01:44:19.998Z,74.48
2023-02-08T01:46:51.683Z,74.01
2023-02-08T01:49:24.860Z,73.29
2023-02-08T01:52:03.769Z,73.45
2023-02-08T01:54:38.469Z,73.46
2023-02-08T01:57:05.068Z,74.37
2023-02-08T02:00:01.430Z,74.30
2023-02-08T02:02:28.441Z,74.27
2023-02-08T02:04:55.925Z,74.94
2023-02-08T02:07:28.600Z,74.83
2023-02-08T02:10:07.458Z,74.99
2023-02-08T02:12:35.505Z,75.24
2023-02-08T02:15:02.697Z,74.36
2023-02-08T02:17:29.284Z,75.23
2023-02-08T02:20:23.916Z,76.33
2023-02-08T02:22:56.354Z,77.10
2023-02-08T02:25:38.226Z,76.41
2023-02-08T02:28:26.367Z,75.31
2023-02-08T02:31:15.634Z,76.00
2023-02-08T02:34:08.463Z,76.28
2023-02-08T02:37:25.584Z,76.90
2023-02-08T02:40:03.235Z,74.60
2023-02-08T02:43:07.381Z,75.73
2023-02-08T02:45:40.137Z,76.40
2023-02-08T02:48:12.573Z,76.00
2023-02-08T02:50:51.358Z,75.67
2023-02-08T02:53:20.516Z,76.49
2023-02-08T02:56:20.002Z,76.30
2023-02-08T02:58:46.609Z,76.86
2023-02-08T03:01:13.204Z,76.94
2023-02-08T03:03:40.322Z,75.68
2023-02-08T03:06:12.232Z,75.45
2023-02-08T03:09:08.045Z,75.49
2023-02-08T03:11:36.961Z,75.55
2023-02-08T03:14:19.123Z,75.09
2023-02-08T03:17:00.665Z,75.00
2023-02-08T03:19:56.219Z,76.50
2023-02-08T03:22:28.788Z,77.15
2023-02-08T03:25:03.183Z,77.41
2023-02-08T03:28:05.823Z,76.52
2023-02-08T03:30:38.906Z,76.30
2023-02-08T03:33:20.372Z,77.56
2023-02-08T03:36:19.291Z,77.43
2023-02-08T03:38:48.635Z,76.59
2023-02-08T03:41:22.644Z,76.31
2023-02-08T03:44:03.529Z,76.65
2023-02-08T03:46:38.384Z,76.39
2023-02-08T03:49:09.729Z,76.45
2023-02-08T03:51:39.121Z,74.99
2023-02-08T03:54:11.463Z,74.75
2023-02-08T03:56:43.434Z,75.37
2023-02-08T03:59:17.179Z,76.57
2023-02-08T04:01:48.580Z,77.17
2023-02-08T04:04:18.686Z,77.08
2023-02-08T04:06:45.426Z,76.98
2023-02-08T04:09:12.012Z,76.93
2023-02-08T04:11:38.486Z,77.43
2023-02-08T04:14:04.954Z,77.18
2023-02-08T04:16:31.392Z,77.74
2023-02-08T04:19:00.762Z,77.96
2023-02-08T04:21:29.973Z,78.30
2023-02-08T04:23:56.397Z,78.26
2023-02-08T04:26:22.907Z,78.59
2023-02-08T04:28:49.402Z,77.88
2023-02-08T04:31:15.964Z,78.08
2023-02-08T04:33:42.626Z,79.04
2023-02-08T04:36:09.588Z,79.31
2023-02-08T04:38:36.196Z,76.72
2023-02-08T04:41:02.653Z,74.29
2023-02-08T04:43:32.020Z,73.85
2023-02-08T04:46:01.021Z,75.16
2023-02-08T04:48:27.607Z,75.33
2023-02-08T04:50:58.232Z,77.54
2023-02-08T04:53:25.621Z,80.12
2023-02-08T04:55:52.517Z,81.21
2023-02-08T04:58:19.051Z,81.69
2023-02-08T05:00:46.509Z,81.59
2023-02-08T05:03:15.104Z,80.58
2023-02-08T05:05:41.946Z,82.47
2023-02-08T05:08:08.460Z,83.12
2023-02-08T05:10:34.981Z,83.18
2023-02-08T05:13:01.445Z,82.19
2023-02-08T05:15:27.961Z,81.46
2023-02-08T05:17:54.507Z,80.91
2023-02-08T05:20:21.652Z,80.92
2023-02-08T05:22:48.149Z,82.72
2023-02-08T05:25:14.626Z,83.06
2023-02-08T05:27:41.064Z,84.20
2023-02-08T05:30:21.664Z,84.91
2023-02-08T05:32:48.106Z,86.10
2023-02-08T05:35:14.687Z,86.18
2023-02-08T05:37:41.168Z,86.30
2023-02-08T05:40:08.361Z,85.57
2023-02-08T05:42:34.853Z,86.45
2023-02-08T05:45:01.844Z,87.11
2023-02-08T05:47:28.297Z,86.23
2023-02-08T05:49:54.765Z,86.77
2023-02-08T05:52:21.195Z,86.67
2023-02-08T05:54:47.621Z,86.58
2023-02-08T05:57:14.133Z,86.29
2023-02-08T05:59:40.580Z,86.49
2023-02-08T06:02:07.222Z,86.97
2023-02-08T06:04:38.968Z,87.21
2023-02-08T06:07:05.682Z,87.24
2023-02-08T06:09:34.206Z,87.85
2023-02-08T06:12:00.729Z,88.45
2023-02-08T06:14:27.233Z,88.51
2023-02-08T06:16:53.656Z,88.79
2023-02-08T06:19:20.166Z,89.49
2023-02-08T06:21:46.718Z,88.35
2023-02-08T06:24:13.756Z,89.95
2023-02-08T06:26:40.177Z,90.53
2023-02-08T06:29:06.763Z,92.21
2023-02-08T06:31:33.214Z,92.12
2023-02-08T06:33:59.722Z,91.35
2023-02-08T06:36:26.417Z,92.07
2023-02-08T06:38:53.097Z,92.40
2023-02-08T06:41:19.795Z,91.12
2023-02-08T06:43:46.267Z,90.25
2023-02-08T06:46:12.839Z,90.34
2023-02-08T06:48:39.310Z,90.53
2023-02-08T06:51:05.752Z,91.29
2023-02-08T06:53:32.312Z,91.65
2023-02-08T06:55:58.713Z,91.71
2023-02-08T06:58:25.303Z,92.47
2023-02-08T07:00:51.909Z,92.80
2023-02-08T07:03:18.436Z,91.99
2023-02-08T07:05:58.691Z,89.44
2023-02-08T07:08:30.268Z,89.08
2023-02-08T07:10:56.714Z,87.07
2023-02-08T07:13:23.520Z,87.12
2023-02-08T07:15:49.998Z,87.92
2023-02-08T07:18:16.691Z,87.72
2023-02-08T07:20:43.104Z,87.50
2023-02-08T07:23:09.559Z,86.49
2023-02-08T07:25:37.198Z,87.97
2023-02-08T07:28:03.884Z,88.98
2023-02-08T07:30:30.609Z,89.15
2023-02-08T07:32:57.117Z,85.44
2023-02-08T07:35:23.910Z,81.67
2023-02-08T07:37:50.763Z,77.32
2023-02-08T07:40:17.508Z,75.29
2023-02-08T07:42:43.957Z,71.32
2023-02-08T07:45:10.384Z,67.50
2023-02-08T07:47:38.157Z,64.60
2023-02-08T07:50:04.985Z,61.84
2023-02-08T07:52:35.253Z,58.01
2023-02-08T07:55:01.732Z,56.04
2023-02-08T07:57:28.168Z,53.90
2023-02-08T07:59:54.589Z,51.91
2023-02-08T08:02:21.156Z,49.74
2023-02-08T08:04:47.664Z,49.38
2023-02-08T08:07:14.169Z,48.34
2023-02-08T08:09:40.596Z,48.16
2023-02-08T08:12:10.213Z,48.02
2023-02-08T08:14:40.563Z,48.24
2023-02-08T08:17:10.033Z,49.26
2023-02-08T08:19:39.973Z,49.80
2023-02-08T08:22:10.706Z,50.00
2023-02-08T08:24:40.188Z,51.01
2023-02-08T08:27:10.568Z,55.64
2023-02-08T08:29:40.222Z,53.57
2023-02-08T08:32:11.928Z,52.90
2023-02-08T08:34:42.282Z,54.06
2023-02-08T08:37:11.910Z,55.16
2023-02-08T08:39:42.637Z,55.81
2023-02-08T08:42:09.544Z,55.53
2023-02-08T08:44:37.278Z,55.63
2023-02-08T08:47:05.238Z,55.81
2023-02-08T08:49:32.012Z,56.37
2023-02-08T08:51:58.892Z,56.65
2023-02-08T08:54:25.491Z,56.10
2023-02-08T08:56:52.291Z,56.41
2023-02-08T08:59:19.153Z,55.87
2023-02-08T09:01:45.919Z,56.46
2023-02-08T09:04:12.951Z,56.86
2023-02-08T09:06:42.512Z,56.22
2023-02-08T09:09:13.643Z,57.58
2023-02-08T09:11:40.119Z,58.43
2023-02-08T09:14:12.556Z,58.70
2023-02-08T09:16:47.662Z,58.74
2023-02-08T09:19:15.851Z,57.96
2023-02-08T09:21:43.257Z,57.80
2023-02-08T09:24:10.269Z,57.10
2023-02-08T09:26:39.942Z,57.56
2023-02-08T09:29:09.829Z,57.08
2023-02-08T09:31:39.491Z,55.95
2023-02-08T09:34:12.453Z,55.70
2023-02-08T09:36:41.965Z,52.77
2023-02-08T09:39:14.743Z,53.27
2023-02-08T09:42:15.366Z,52.01
2023-02-08T09:44:55.981Z,51.66
2023-02-08T09:47:37.656Z,52.12
2023-02-08T09:50:13.664Z,50.99
2023-02-08T09:53:03.076Z,51.09
2023-02-08T09:55:51.748Z,50.31
2023-02-08T09:58:34.297Z,48.85
2023-02-08T10:01:04.068Z,48.52
2023-02-08T10:03:31.547Z,48.26
2023-02-08T10:05:58.424Z,48.03
2023-02-08T10:08:34.918Z,47.63
2023-02-08T10:11:28.547Z,46.96
2023-02-08T10:14:02.602Z,46.90
2023-02-08T10:16:52.422Z,46.44
2023-02-08T10:19:49.698Z,46.64
2023-02-08T10:22:43.632Z,45.96
2023-02-08T10:25:13.074Z,46.61
2023-02-08T10:27:57.902Z,46.58
2023-02-08T10:30:38.769Z,46.80
2023-02-08T10:33:12.332Z,47.37
2023-02-08T10:35:44.954Z,47.27
2023-02-08T10:38:43.963Z,45.12
2023-02-08T10:41:18.481Z,44.81
2023-02-08T10:43:51.894Z,43.48
2023-02-08T10:46:35.673Z,44.00
2023-02-08T10:49:20.444Z,43.24
2023-02-08T10:51:47.630Z,42.64
2023-02-08T10:54:15.442Z,42.27
2023-02-08T10:57:19.972Z,41.50
2023-02-08T10:59:49.370Z,41.54
2023-02-08T11:02:23.618Z,42.90
2023-02-08T11:05:10.273Z,42.27
2023-02-08T11:07:37.193Z,42.89
2023-02-08T11:10:16.690Z,42.32
2023-02-08T11:12:54.679Z,40.93
2023-02-08T11:15:25.942Z,41.53
2023-02-08T11:17:56.710Z,41.18
2023-02-08T11:20:31.530Z,41.56
2023-02-08T11:22:59.437Z,39.37
2023-02-08T11:25:42.516Z,39.03
2023-02-08T11:28:24.301Z,39.42
2023-02-08T11:31:19.603Z,38.35
2023-02-08T11:34:11.563Z,40.27
2023-02-08T11:36:48.347Z,38.79
2023-02-08T11:39:22.258Z,38.56
2023-02-08T11:41:51.156Z,39.54
2023-02-08T11:44:24.426Z,40.53
2023-02-08T11:46:52.252Z,40.24
2023-02-08T11:49:28.690Z,37.90
2023-02-08T11:51:55.637Z,39.69
2023-02-08T11:55:17.612Z,40.03
2023-02-08T11:57:59.137Z,37.69
2023-02-08T12:00:31.730Z,37.13
2023-02-08T12:03:05.581Z,35.88
2023-02-08T12:05:41.828Z,35.69
2023-02-08T12:08:50.390Z,36.14
2023-02-08T12:11:41.072Z,36.00
2023-02-08T12:14:25.926Z,36.72
2023-02-08T12:17:04.772Z,37.85
2023-02-08T12:20:10.796Z,38.26
2023-02-08T12:22:42.309Z,38.34
2023-02-08T12:25:26.699Z,39.00
2023-02-08T12:28:03.297Z,39.26
2023-02-08T12:30:42.037Z,39.44
2023-02-08T12:33:30.773Z,39.61
2023-02-08T12:36:18.432Z,38.45
2023-02-08T12:39:31.499Z,37.99
2023-02-08T12:42:16.153Z,38.01
2023-02-08T12:44:42.567Z,37.10
2023-02-08T12:47:58.187Z,38.73
2023-02-08T12:51:05.522Z,39.99
2023-02-08T12:53:38.705Z,39.22
2023-02-08T12:56:16.352Z,38.86
2023-02-08T12:58:49.795Z,40.76
2023-02-08T13:01:26.543Z,38.24
2023-02-08T13:03:57.793Z,37.17
2023-02-08T13:06:33.547Z,36.16
2023-02-08T13:09:13.665Z,35.64
2023-02-08T13:11:57.193Z,35.19
2023-02-08T13:15:02.921Z,34.49
2023-02-08T13:17:51.659Z,33.06
2023-02-08T13:20:33.510Z,33.95
2023-02-08T13:23:03.905Z,34.61
2023-02-08T13:25:36.066Z,36.20
2023-02-08T13:28:10.971Z,34.41
2023-02-08T13:30:40.200Z,33.74
2023-02-08T13:33:29.583Z,34.16
2023-02-08T13:35:57.954Z,34.38
2023-02-08T13:38:34.801Z,34.34
2023-02-08T13:41:09.358Z,33.23
2023-02-08T13:43:40.965Z,33.20
2023-02-08T13:46:10.511Z,32.93
2023-02-08T13:48:48.745Z,34.86
2023-02-08T13:51:33.574Z,34.01
2023-02-08T13:54:00.319Z,34.63
2023-02-08T13:56:45.208Z,33.04
2023-02-08T13:59:30.431Z,31.98
2023-02-08T14:02:22.305Z,31.81
2023-02-08T14:04:54.514Z,35.35
2023-02-08T14:07:47.265Z,31.72
2023-02-08T14:10:37.486Z,31.05
2023-02-08T14:13:17.990Z,32.18
2023-02-08T14:15:45.091Z,32.44
2023-02-08T14:18:28.814Z,32.53
2023-02-08T14:21:05.301Z,32.11
2023-02-08T14:23:34.243Z,31.54
2023-02-08T14:26:07.751Z,31.30
2023-02-08T14:28:44.101Z,32.24
2023-02-08T14:31:12.331Z,31.90
2023-02-08T14:33:54.466Z,32.07
2023-02-08T14:36:28.724Z,32.45
2023-02-08T14:39:29.096Z,31.99
2023-02-08T14:42:05.489Z,33.51
2023-02-08T14:44:37.996Z,32.55
2023-02-08T14:47:38.477Z,31.74
2023-02-08T14:50:15.792Z,31.33
2023-02-08T14:52:52.908Z,32.45
2023-02-08T14:55:27.464Z,33.56
2023-02-08T14:57:55.978Z,33.11
2023-02-08T15:00:28.592Z,32.26
2023-02-08T15:02:56.716Z,32.32
2023-02-08T15:05:28.980Z,33.04
2023-02-08T15:07:57.948Z,33.12
2023-02-08T15:10:26.751Z,34.18
2023-02-08T15:12:57.769Z,34.54
2023-02-08T15:15:37.174Z,34.34
2023-02-08T15:18:07.167Z,36.03
2023-02-08T15:20:35.776Z,34.98
2023-02-08T15:23:05.942Z,35.23
2023-02-08T15:25:35.588Z,35.80
2023-02-08T15:28:16.615Z,37.40
2023-02-08T15:30:44.032Z,36.87
2023-02-08T15:33:18.020Z,36.85
2023-02-08T15:35:45.959Z,36.42
2023-02-08T15:38:21.514Z,37.02
2023-02-08T15:41:07.537Z,36.79
2023-02-08T15:43:35.428Z,36.70
2023-02-08T15:46:05.937Z,37.66
2023-02-08T15:48:33.573Z,38.49
2023-02-08T15:51:01.210Z,38.07
2023-02-08T15:53:28.348Z,39.28
2023-02-08T15:55:59.245Z,39.54
2023-02-08T15:58:54.948Z,39.59
2023-02-08T16:01:22.383Z,40.46
2023-02-08T16:03:58.182Z,40.45
2023-02-08T16:06:37.636Z,40.57
2023-02-08T16:09:04.501Z,40.70
2023-02-08T16:11:34.395Z,41.23
2023-02-08T16:14:03.452Z,41.01
2023-02-08T16:16:35.840Z,42.75
2023-02-08T16:19:06.547Z,44.10
2023-02-08T16:21:39.884Z,45.29
2023-02-08T16:24:21.400Z,46.42
2023-02-08T16:27:07.351Z,47.42
2023-02-08T16:29:38.255Z,48.11
2023-02-08T16:32:20.883Z,48.26
2023-02-08T16:34:47.604Z,49.03
2023-02-08T16:37:33.354Z,50.12
2023-02-08T16:40:48.843Z,50.94
2023-02-08T16:43:26.043Z,51.45
2023-02-08T16:46:17.449Z,52.74
2023-02-08T16:48:48.445Z,53.53
2023-02-08T16:51:21.943Z,54.50
2023-02-08T16:53:55.058Z,54.80
2023-02-08T16:56:23.129Z,55.66
2023-02-08T16:58:49.652Z,55.99
2023-02-08T17:01:16.988Z,57.13
2023-02-08T17:03:46.224Z,57.59
2023-02-08T17:06:38.366Z,57.73
2023-02-08T17:09:06.655Z,58.29
2023-02-08T17:11:35.589Z,58.44
2023-02-08T17:14:02.724Z,59.12
2023-02-08T17:16:31.042Z,59.20
2023-02-08T17:18:58.864Z,59.50
2023-02-08T17:21:27.318Z,60.22
2023-02-08T17:23:53.836Z,60.16
2023-02-08T17:26:27.493Z,60.59
2023-02-08T17:28:55.955Z,60.48
2023-02-08T17:31:23.427Z,61.13
2023-02-08T17:33:50.215Z,61.45
2023-02-08T17:36:17.404Z,61.63
2023-02-08T17:38:46.309Z,60.97
2023-02-08T17:41:18.693Z,62.05
2023-02-08T17:43:45.449Z,62.99
2023-02-08T17:46:17.617Z,63.14
2023-02-08T17:48:45.708Z,63.69
2023-02-08T17:51:20.840Z,63.93
2023-02-08T17:53:47.624Z,63.93
2023-02-08T17:56:25.079Z,64.81
2023-02-08T17:58:53.919Z,64.61
2023-02-08T18:01:26.390Z,65.00
2023-02-08T18:03:53.278Z,65.43
2023-02-08T18:06:20.515Z,65.93
2023-02-08T18:08:47.114Z,66.13
2023-02-08T18:11:19.741Z,66.32
2023-02-08T18:13:50.935Z,66.16
2023-02-08T18:16:23.820Z,66.55
2023-02-08T18:18:50.415Z,67.22
2023-02-08T18:21:22.108Z,67.42
2023-02-08T18:23:49.989Z,67.61
2023-02-08T18:26:19.968Z,68.33
2023-02-08T18:28:47.180Z,67.84
2023-02-08T18:31:17.044Z,67.56
2023-02-08T18:33:44.051Z,68.21
2023-02-08T18:36:14.894Z,68.41
2023-02-08T18:38:47.978Z,68.04
2023-02-08T18:41:24.206Z,68.10
2023-02-08T18:43:51.285Z,68.32
2023-02-08T18:46:20.571Z,68.65
2023-02-08T18:48:48.598Z,68.27
2023-02-08T18:51:19.535Z,69.44
2023-02-08T18:53:48.803Z,69.36
2023-02-08T18:56:15.454Z,69.55
2023-02-08T18:58:45.770Z,69.80
2023-02-08T19:01:22.506Z,69.53
2023-02-08T19:03:49.410Z,69.47
2023-02-08T19:06:21.004Z,69.71
2023-02-08T19:08:47.586Z,70.08
2023-02-08T19:11:17.481Z,70.38
2023-02-08T19:13:44.704Z,70.89
2023-02-08T19:16:15.410Z,71.49
2023-02-08T19:18:45.551Z,71.38
2023-02-08T19:21:17.226Z,70.68
2023-02-08T19:23:54.911Z,69.96
2023-02-08T19:26:26.995Z,70.75
2023-02-08T19:28:55.036Z,70.90
2023-02-08T19:31:25.861Z,70.77
2023-02-08T19:33:58.709Z,70.74
2023-02-08T19:36:35.209Z,69.82
2023-02-08T19:39:06.933Z,71.08
2023-02-08T19:41:36.670Z,70.99
2023-02-08T19:44:08.283Z,71.88
2023-02-08T19:46:38.647Z,71.23
2023-02-08T19:49:06.568Z,71.73
2023-02-08T19:51:35.324Z,71.63
2023-02-08T19:54:03.170Z,70.25
2023-02-08T19:56:36.562Z,70.36
2023-02-08T19:59:05.560Z,71.11
2023-02-08T20:01:34.410Z,71.17
2023-02-08T20:04:01.793Z,71.31
2023-02-08T20:06:32.992Z,72.71
2023-02-08T20:09:00.586Z,73.56
2023-02-08T20:11:38.717Z,73.14
2023-02-08T20:14:14.762Z,72.75
2023-02-08T20:16:41.638Z,72.63
2023-02-08T20:19:11.247Z,72.77
2023-02-08T20:21:40.246Z,74.66
2023-02-08T20:24:11.522Z,73.58
2023-02-08T20:26:44.810Z,72.85
2023-02-08T20:29:14.446Z,72.72
2023-02-08T20:31:47.914Z,72.93
2023-02-08T20:34:18.779Z,74.66
2023-02-08T20:37:06.713Z,75.48
2023-02-08T20:39:36.280Z,76.59
2023-02-08T20:42:02.970Z,78.42
2023-02-08T20:44:29.617Z,78.03
2023-02-08T20:46:56.089Z,78.81
2023-02-08T20:49:25.565Z,79.45
2023-02-08T20:51:53.833Z,79.59
2023-02-08T20:54:22.874Z,79.59
2023-02-08T20:56:49.352Z,79.58
2023-02-08T20:59:18.726Z,79.94
2023-02-08T21:01:49.006Z,80.17
2023-02-08T21:04:20.202Z,80.36
2023-02-08T21:06:46.731Z,80.31
2023-02-08T21:09:17.279Z,80.56
2023-02-08T21:11:47.391Z,80.26
2023-02-08T21:14:21.278Z,79.93
2023-02-08T21:16:51.048Z,79.86
2023-02-08T21:19:20.471Z,80.49
2023-02-08T21:21:51.477Z,80.99
2023-02-08T21:24:18.211Z,81.07
2023-02-08T21:26:47.541Z,81.39
2023-02-08T21:29:18.032Z,81.82
2023-02-08T21:31:51.649Z,82.83
2023-02-08T21:34:19.615Z,81.83
2023-02-08T21:36:46.144Z,82.90
2023-02-08T21:39:17.809Z,82.96
2023-02-08T21:41:48.274Z,83.22
2023-02-08T21:44:15.658Z,83.18
2023-02-08T21:46:45.837Z,82.71
2023-02-08T21:49:31.138Z,82.22
2023-02-08T21:52:16.277Z,82.43
2023-02-08T21:54:45.368Z,82.57
2023-02-08T21:57:26.722Z,82.36
2023-02-08T21:59:57.118Z,82.07
2023-02-08T22:02:27.744Z,82.42
2023-02-08T22:04:57.260Z,81.50
2023-02-08T22:07:25.605Z,80.32
2023-02-08T22:09:52.660Z,80.11
2023-02-08T22:12:21.666Z,80.51
2023-02-08T22:14:49.493Z,79.93
2023-02-08T22:17:19.100Z,80.87
2023-02-08T22:19:48.672Z,80.92
2023-02-08T22:22:17.946Z,80.63
2023-02-08T22:24:46.743Z,81.42
2023-02-08T22:27:13.620Z,80.97
2023-02-08T22:29:40.558Z,80.46
2023-02-08T22:32:10.008Z,79.99
2023-02-08T22:34:40.253Z,79.85
2023-02-08T22:37:06.998Z,80.09
2023-02-08T22:39:36.055Z,79.87
2023-02-08T22:42:08.314Z,80.12
2023-02-08T22:44:36.491Z,80.20
2023-02-08T22:47:04.862Z,79.86
2023-02-08T22:49:31.411Z,80.14
2023-02-08T22:51:58.340Z,80.47
2023-02-08T22:54:24.913Z,81.35
2023-02-08T22:56:51.539Z,82.36
2023-02-08T22:59:21.125Z,81.86
2023-02-08T23:01:50.773Z,82.29
2023-02-08T23:04:20.349Z,82.72
2023-02-08T23:06:48.824Z,83.82
2023-02-08T23:09:15.278Z,83.02
2023-02-08T23:11:41.767Z,83.40
2023-02-08T23:14:08.644Z,84.20
2023-02-08T23:16:35.703Z,84.75
2023-02-08T23:19:05.071Z,86.11
2023-02-08T23:21:32.067Z,85.85
2023-02-08T23:23:58.538Z,87.49
2023-02-08T23:26:25.928Z,86.74
2023-02-08T23:28:54.017Z,86.72
2023-02-08T23:31:23.501Z,86.35
2023-02-08T23:33:53.305Z,86.27
2023-02-08T23:36:23.640Z,86.18
2023-02-08T23:38:53.753Z,86.19
2023-02-08T23:41:23.953Z,86.17
2023-02-08T23:43:53.493Z,85.58
2023-02-08T23:46:25.831Z,86.86
2023-02-08T23:48:52.707Z,86.65
2023-02-08T23:51:22.475Z,85.82
2023-02-08T23:53:54.121Z,85.03
2023-02-08T23:56:26.188Z,84.56
2023-02-08T23:58:55.025Z,84.73
